createdAt,value
2022-09-02T00:02:57.177Z,100673.75
2022-09-02T00:08:01.539Z,100665.19
2022-09-02T00:13:04.699Z,100673.44
2022-09-02T00:18:12.540Z,100670.28
2022-09-02T00:23:20.345Z,100666.34
2022-09-02T00:28:23.273Z,100660.56
2022-09-02T00:33:27.102Z,100654.44
2022-09-02T00:38:33.716Z,100658.41
2022-09-02T00:43:44.167Z,100651.66
2022-09-02T00:48:49.327Z,100650.19
2022-09-02T00:53:53.678Z,100656.44
2022-09-02T00:58:56.813Z,100648.66
2022-09-02T01:03:59.650Z,100649.16
2022-09-02T01:09:08.398Z,100646.50
2022-09-02T01:14:13.818Z,100655.91
2022-09-02T01:19:22.947Z,100636.94
2022-09-02T01:24:30.047Z,100640.91
2022-09-02T01:29:32.775Z,100646.00
2022-09-02T01:34:37.877Z,100637.41
2022-09-02T01:39:42.678Z,100630.97
2022-09-02T01:44:46.155Z,100634.78
2022-09-02T01:49:50.680Z,100636.94
2022-09-02T01:54:55.294Z,100631.63
2022-09-02T01:59:58.253Z,100626.69
2022-09-02T02:05:02.692Z,100628.97
2022-09-02T02:10:08.174Z,100618.91
2022-09-02T02:15:15.034Z,100617.56
2022-09-02T02:20:19.582Z,100613.28
2022-09-02T02:25:24.046Z,100607.84
2022-09-02T02:30:29.819Z,100617.91
2022-09-02T02:35:33.525Z,100617.72
2022-09-02T02:40:38.492Z,100611.94
2022-09-02T02:45:41.901Z,100605.69
2022-09-02T02:50:44.979Z,100609.00
2022-09-02T02:55:49.889Z,100601.22
2022-09-02T03:00:54.176Z,100598.72
2022-09-02T03:05:58.074Z,100590.78
2022-09-02T03:11:06.986Z,100603.00
2022-09-02T03:16:14.049Z,100603.50
2022-09-02T03:21:18.303Z,100611.91
2022-09-02T03:26:25.768Z,100601.34
2022-09-02T03:31:29.337Z,100602.16
2022-09-02T03:36:36.162Z,100606.09
2022-09-02T03:41:42.002Z,100606.72
2022-09-02T03:46:45.587Z,100603.09
2022-09-02T03:51:48.452Z,100601.63
2022-09-02T03:56:53.526Z,100596.00
2022-09-02T04:01:56.901Z,100596.47
2022-09-02T04:07:00.503Z,100601.03
2022-09-02T04:12:07.075Z,100603.81
2022-09-02T04:17:10.809Z,100597.69
2022-09-02T04:22:13.685Z,100603.28
2022-09-02T04:27:17.984Z,100606.06
2022-09-02T04:32:21.792Z,100598.81
2022-09-02T04:37:26.339Z,100603.25
2022-09-02T04:42:31.074Z,100602.63
2022-09-02T04:47:34.192Z,100599.31
2022-09-02T04:52:38.023Z,100601.09
2022-09-02T04:57:42.596Z,100614.81
2022-09-02T05:02:45.677Z,100611.34
2022-09-02T05:07:49.408Z,100611.53
2022-09-02T05:12:54.427Z,100615.16
2022-09-02T05:17:57.505Z,100607.78
2022-09-02T05:23:00.870Z,100609.84
2022-09-02T05:28:06.422Z,100612.34
2022-09-02T05:33:10.460Z,100612.53
2022-09-02T05:38:17.342Z,100609.13
2022-09-02T05:43:24.009Z,100615.75
2022-09-02T05:48:44.415Z,100606.69
2022-09-02T05:53:47.937Z,100599.28
2022-09-02T05:58:52.974Z,100602.06
2022-09-02T06:03:57.463Z,100595.47
2022-09-02T06:09:00.580Z,100604.72
2022-09-02T06:14:07.452Z,100606.06
2022-09-02T06:19:16.442Z,100605.38
2022-09-02T06:24:24.601Z,100604.53
2022-09-02T06:29:29.081Z,100607.97
2022-09-02T06:34:32.105Z,100607.09
2022-09-02T06:39:35.921Z,100598.41
2022-09-02T06:44:41.467Z,100607.16
2022-09-02T06:49:44.307Z,100601.31
2022-09-02T06:54:47.176Z,100602.41
2022-09-02T06:59:52.882Z,100612.41
2022-09-02T07:05:16.009Z,100601.25
2022-09-02T07:10:21.809Z,100608.25
2022-09-02T07:15:30.042Z,100608.13
2022-09-02T07:20:33.366Z,100603.13
2022-09-02T07:25:39.479Z,100597.16
2022-09-02T07:30:45.899Z,100605.06
2022-09-02T07:35:53.148Z,100619.16
2022-09-02T07:40:57.478Z,100606.91
2022-09-02T07:46:06.053Z,100610.41
2022-09-02T07:51:09.512Z,100615.22
2022-09-02T07:56:15.032Z,100613.75
2022-09-02T08:01:23.488Z,100610.81
2022-09-02T08:06:34.819Z,100609.72
2022-09-02T08:11:39.804Z,100612.25
2022-09-02T08:16:44.061Z,100613.81
2022-09-02T08:21:46.920Z,100619.91
2022-09-02T08:26:49.898Z,100611.06
2022-09-02T08:31:54.332Z,100616.88
2022-09-02T08:36:57.947Z,100619.75
2022-09-02T08:42:05.930Z,100606.66
2022-09-02T08:47:13.766Z,100598.66
2022-09-02T08:52:23.705Z,100589.88
2022-09-02T08:57:27.625Z,100590.78
2022-09-02T09:02:46.655Z,100589.91
2022-09-02T09:08:00.869Z,100585.16
2022-09-02T09:13:20.286Z,100584.38
2022-09-02T09:18:29.302Z,100576.47
2022-09-02T09:23:34.692Z,100567.63
2022-09-02T09:28:45.381Z,100563.78
2022-09-02T09:33:59.934Z,100554.66
2022-09-02T09:39:18.609Z,100564.53
2022-09-02T09:44:45.332Z,100560.25
2022-09-02T09:49:51.415Z,100552.06
2022-09-02T09:55:13.588Z,100550.00
2022-09-02T10:00:22.007Z,100539.75
2022-09-02T10:05:36.181Z,100546.53
2022-09-02T10:10:39.029Z,100541.59
2022-09-02T10:15:46.490Z,100539.06
2022-09-02T10:21:11.774Z,100541.31
2022-09-02T10:31:39.375Z,100530.38
2022-09-02T10:36:58.834Z,100518.47
2022-09-02T10:42:10.361Z,100519.50
2022-09-02T10:47:20.448Z,100523.41
2022-09-02T10:52:58.003Z,100522.13
2022-09-02T10:58:03.036Z,100518.25
2022-09-02T11:03:16.273Z,100504.28
2022-09-02T11:08:29.573Z,100508.03
2022-09-02T11:13:38.721Z,100508.34
2022-09-02T11:18:46.156Z,100497.09
2022-09-02T11:23:55.002Z,100500.28
2022-09-02T11:29:02.974Z,100492.25
2022-09-02T11:34:17.523Z,100486.03
2022-09-02T11:39:36.467Z,100472.75
2022-09-02T11:45:14.527Z,100472.28
2022-09-02T11:50:56.140Z,100467.72
2022-09-02T11:56:03.094Z,100465.72
2022-09-02T12:01:19.833Z,100451.34
2022-09-02T12:06:27.774Z,100457.91
2022-09-02T12:11:50.155Z,100455.84
2022-09-02T12:17:03.857Z,100450.41
2022-09-02T12:22:28.300Z,100451.28
2022-09-02T12:27:36.595Z,100449.81
2022-09-02T12:33:05.225Z,100452.78
2022-09-02T12:38:41.851Z,100438.94
2022-09-02T12:44:05.560Z,100436.84
2022-09-02T12:49:14.853Z,100426.66
2022-09-02T12:54:18.282Z,100415.03
2022-09-02T12:59:29.722Z,100407.81
2022-09-02T13:04:39.954Z,100412.03
2022-09-02T13:09:51.541Z,100413.38
2022-09-02T13:15:03.057Z,100417.28
2022-09-02T13:20:33.926Z,100408.63
2022-09-02T13:25:51.560Z,100403.34
2022-09-02T13:31:06.042Z,100395.88
2022-09-02T13:36:09.183Z,100399.09
2022-09-02T13:41:11.958Z,100394.38
2022-09-02T13:46:16.062Z,100393.16
2022-09-02T13:51:18.812Z,100379.63
2022-09-02T13:56:27.204Z,100388.47
2022-09-02T14:01:34.012Z,100376.94
2022-09-02T14:06:38.812Z,100368.03
2022-09-02T14:11:43.776Z,100363.94
2022-09-02T14:16:47.874Z,100358.97
2022-09-02T14:21:53.379Z,100366.09
2022-09-02T14:26:57.221Z,100368.44
2022-09-02T14:32:15.174Z,100366.19
2022-09-02T14:37:24.087Z,100361.91
2022-09-02T14:42:29.319Z,100363.44
2022-09-02T14:47:37.839Z,100361.00
2022-09-02T14:52:47.740Z,100352.69
2022-09-02T14:58:02.674Z,100349.75
2022-09-02T15:03:08.135Z,100345.41
2022-09-02T15:08:11.065Z,100346.00
2022-09-02T15:13:15.933Z,100335.66
2022-09-02T15:18:20.285Z,100341.38
2022-09-02T15:23:24.253Z,100337.91
2022-09-02T15:28:27.804Z,100335.09
2022-09-02T15:33:32.336Z,100336.09
2022-09-02T15:38:35.832Z,100338.03
2022-09-02T15:43:38.740Z,100345.25
2022-09-02T15:48:42.781Z,100327.38
2022-09-02T15:53:45.694Z,100324.44
2022-09-02T15:58:48.881Z,100330.59
2022-09-02T16:03:53.181Z,100324.56
2022-09-02T16:08:56.633Z,100323.06
2022-09-02T16:13:59.342Z,100332.88
2022-09-02T16:19:05.083Z,100328.06
2022-09-02T16:24:08.640Z,100326.34
2022-09-02T16:29:13.700Z,100322.09
2022-09-02T16:34:19.933Z,100320.50
2022-09-02T16:39:23.089Z,100311.03
2022-09-02T16:44:26.674Z,100307.38
2022-09-02T16:49:32.067Z,100312.56
2022-09-02T16:54:38.670Z,100306.44
2022-09-02T16:59:43.382Z,100302.75
2022-09-02T17:04:47.571Z,100294.19
2022-09-02T17:09:50.235Z,100287.81
2022-09-02T17:14:53.012Z,100286.00
2022-09-02T17:19:57.077Z,100283.56
2022-09-02T17:24:59.846Z,100289.31
2022-09-02T17:30:02.883Z,100293.00
2022-09-02T17:35:08.478Z,100295.91
2022-09-02T17:40:33.075Z,100296.59
2022-09-02T17:45:37.459Z,100300.44
2022-09-02T17:50:41.565Z,100300.66
2022-09-02T17:55:44.831Z,100293.69
2022-09-02T18:00:50.186Z,100294.09
2022-09-02T18:06:05.858Z,100300.44
2022-09-02T18:11:08.754Z,100299.63
2022-09-02T18:16:23.511Z,100304.72
2022-09-02T18:21:30.680Z,100310.66
2022-09-02T18:26:44.692Z,100310.44
2022-09-02T18:31:52.774Z,100314.75
2022-09-02T18:37:05.820Z,100312.28
2022-09-02T18:42:18.347Z,100318.16
2022-09-02T18:47:23.344Z,100318.53
2022-09-02T18:52:29.620Z,100323.19
2022-09-02T18:57:38.723Z,100318.06
2022-09-02T19:02:46.384Z,100328.25
2022-09-02T19:08:14.566Z,100323.72
2022-09-02T19:13:18.878Z,100316.94
2022-09-02T19:18:22.057Z,100327.34
2022-09-02T19:23:26.530Z,100323.00
2022-09-02T19:28:29.821Z,100323.97
2022-09-02T19:33:34.785Z,100330.06
2022-09-02T19:38:39.214Z,100334.34
2022-09-02T19:43:42.503Z,100335.09
2022-09-02T19:48:45.219Z,100342.84
2022-09-02T19:53:49.327Z,100344.50
2022-09-02T19:58:52.431Z,100344.22
2022-09-02T20:03:55.208Z,100350.13
2022-09-02T20:08:59.477Z,100353.53
2022-09-02T20:14:04.192Z,100351.63
2022-09-02T20:19:07.086Z,100354.69
2022-09-02T20:24:13.630Z,100358.09
2022-09-02T20:29:29.622Z,100353.81
2022-09-02T20:34:51.089Z,100353.53
2022-09-02T20:40:08.807Z,100364.56
2022-09-02T20:45:16.324Z,100368.34
2022-09-02T20:50:31.974Z,100353.97
2022-09-02T20:55:40.328Z,100360.66
2022-09-02T21:00:47.270Z,100363.72
2022-09-02T21:05:56.094Z,100366.97
2022-09-02T21:11:02.437Z,100372.63
2022-09-02T21:16:08.756Z,100365.16
2022-09-02T21:21:17.292Z,100366.97
2022-09-02T21:26:25.173Z,100366.16
2022-09-02T21:31:32.503Z,100367.81
2022-09-02T21:36:37.005Z,100367.59
2022-09-02T21:41:44.054Z,100364.56
2022-09-02T21:47:01.182Z,100361.53
2022-09-02T21:52:10.366Z,100365.00
2022-09-02T21:57:23.379Z,100355.66
2022-09-02T22:02:32.780Z,100356.28
2022-09-02T22:07:40.135Z,100353.44
2022-09-02T22:12:52.021Z,100355.28
2022-09-02T22:18:00.159Z,100340.94
2022-09-02T22:23:05.537Z,100336.00
2022-09-02T22:28:12.929Z,100341.97
2022-09-02T22:33:19.009Z,100339.84
2022-09-02T22:38:26.309Z,100342.28
2022-09-02T22:43:34.476Z,100340.44
2022-09-02T22:49:06.771Z,100336.97
2022-09-02T22:54:09.824Z,100337.34
2022-09-02T22:59:26.499Z,100328.94
2022-09-02T23:04:42.035Z,100332.22
2022-09-02T23:09:45.038Z,100326.47
2022-09-02T23:14:53.732Z,100323.56
2022-09-02T23:20:12.331Z,100328.19
2022-09-02T23:25:37.728Z,100323.72
2022-09-02T23:30:52.383Z,100324.63
2022-09-02T23:36:02.853Z,100332.63
2022-09-02T23:41:08.954Z,100325.41
2022-09-02T23:46:20.087Z,100319.59
2022-09-02T23:51:30.250Z,100314.03
2022-09-02T23:56:46.626Z,100301.06
